SAN weather

San Diego International Airport
San Diego, California, United States

Public forecast

Using degrees Fahrenheit for public forecast. Weather courtesy of forecast.io.

METAR (pilot weather report)

Retrieved 2018/06/24 05:51 UTC (20 minutes ago):

KSAN 240551Z 19010KT 10SM OVC015 18/14 A2990 RMK AO2 SLP124 T01780139 10183 20178 51009

TAF (pilot weather forecast)

Retrieved 2018/06/24 06:22 UTC (0 seconds ago):

TAF KSAN 240520Z 2406/2512 19011KT P6SM OVC015 FM241800 19009KT P6SM SCT020 FM250200 VRB05KT P6SM BKN015